Terminal Aerodrome Forecast
Issued by NWS

Current Version | Previous Version | Text Only | Print | Product List | Glossary On
Versions: 1 2 3 4 5 6 7 8 9 10 11 12 13 14 15 16 17 18 19 20 21 22 23 24 25 26 27 28 29 30
000
FTUS42 KFFC 021543 AAB
TAFFTY
TAF AMD
KFTY 021543Z 0216/0312 25008KT P6SM VCSH SCT030
      TEMPO 0218/0222 VRB15G25KT 6SM TSRA BKN035CB
     FM030000 24007KT P6SM BKN100
     FM030900 23008KT P6SM BKN015=

USA.gov is the U.S. government's official web portal to all federal, state and local government web resources and services.